AirNav   Bose A20 Aviation Headset
 
 1127 users online  

81R San Saba County Municipal Airport
San Saba, Texas, USA

GOING TO SAN SABA?


FAA INFORMATION EFFECTIVE 11 OCTOBER 2018

Location

FAA Identifier: 81R
Lat/Long: 31-14-08.7015N / 098-43-03.7275W
31-14.145025N / 098-43.062125W
31.2357504 / -98.7177021
(estimated)
Elevation: 1255 ft. / 383 m (estimated)
Variation: 07E (1985)
From city: 3 miles N of SAN SABA, TX
Time zone: UTC -5 (UTC -6 during Standard Time)
Zip code: 76877

Airport Operations

Airport use: Open to the public
Activation date: 08/1963
Control tower: no
ARTCC: HOUSTON CENTER
FSS: SAN ANGELO FLIGHT SERVICE STATION
NOTAMs facility: SJT (NOTAM-D service available)
Attendance: UNATNDD
Wind indicator: lighted
Segmented circle: yes
Lights: DUSK-DAWN. ACTVT MIRL RY 13/31 - CTAF.
Beacon: white-green (lighted land airport)
Operates sunset to sunrise.

Airport Communications

CTAF/UNICOM: 122.8
WX AWOS-3: PHONE 325-372-6027

Nearby radio navigation aids

VOR radial/distance  VOR name  Freq  Var
LLOr360/26.6LLANO VORTAC108.2008E
AGJr271/29.7GOOCH SPRINGS VORTAC112.5005E

 
NDB name  Hdg/Dist  Freq  Var  ID
BRADY077/31.238007EBBD -... -... -..

Airport Services

Fuel available: 100LL
EMERG FUEL ONLY CALL 325-372-3722.
Parking: tiedowns
Airframe service: NONE
Powerplant service: NONE
Bottled oxygen: NONE
Bulk oxygen: NONE

Runway Information

Runway 13/31

Dimensions: 4205 x 60 ft. / 1282 x 18 m
Surface: asphalt, in good condition
Weight bearing capacity: 
Single wheel: 12.5
Runway edge lights: medium intensity
RUNWAY 13  RUNWAY 31
Latitude: 31-14.385783N31-13.904267N
Longitude: 098-43.352683W098-42.771567W
Elevation: 1255.2 ft.1245.7 ft.
Gradient: 0.2%0.2%
Traffic pattern: leftleft
Runway heading: 127 magnetic, 134 true307 magnetic, 314 true
Markings: basic, in good conditionbasic, in good condition
Visual slope indicator: 2-light PAPI on left (3.00 degrees glide path)2-light PAPI on left (3.00 degrees glide path)
Obstructions: 4 ft. hill, 340 ft. from runway, 35:1 slope to clear20 ft. tree, 536 ft. from runway, 55 ft. left of centerline, 16:1 slope to clear

Airport Ownership and Management from official FAA records

Ownership: Publicly-owned
Owner: SAN SABA CITY COUNTY
500 E. WALLACE
SAN SABA, TX 76877
Phone 325-372-5144
Manager: STEVE DYER
567 C.R. 105
SAN SABA, TX 76877
Phone 325-372-3380

Airport Operational Statistics

Aircraft based on the field: 6
Single engine airplanes: 6
    
Aircraft operations: avg 54/week *
43% local general aviation
36% military
22% transient general aviation
* for 12-month period ending 31 March 2014

Additional Remarks

JET A FUEL AVBL FOR HELICOPTERS ONLY.
RWY 13 -10 FT DRAINAGE DITCH 30-180 FT FM THLD, 60 FT RIGHT OF CNTRLN; -5 FT DITCH 80 FT LEFT OF CNTRLN NEAR THLD; -5 FT DITCH 118 FT RIGHT OF CNTRLN NEAR THLD

Instrument Procedures

There are no published instrument procedures at 81R.

Some nearby airports with instrument procedures:

KAQO - Llano Municipal Airport (27 nm S)
KLZZ - Lampasas Airport (28 nm E)
KBBD - Curtis Field Airport (31 nm W)
KBWD - Brownwood Regional Airport (36 nm N)
T92 - Mason County Airport (39 nm SW)
 
Loc | Ops | Rwys | IFR | FBO | Links
Com | Nav | Svcs | Stats | Notes


 
Area around 81R (San Saba County Municipal Airport)
 
Road maps at: MapQuest Bing Google
 
Aerial photo
WARNING: Photo may not be current or correct
Aerial photo of 81R (San Saba County Municipal Airport)
Photo taken 27-Feb-2005

Do you have a better or more recent aerial photo of San Saba County Municipal Airport that you would like to share? If so, please send us your photo.

 
Sectional chart

 
Airport distance calculator
Flying to San Saba County Municipal Airport? Find the distance to fly.

From to 81R

Sunrise and sunset
Times for 15-Oct-2018
 Local
(UTC-5)
 Zulu
(UTC)
Morning civil twilight07:1412:14
Sunrise07:3912:39
Sunset19:0300:03
Evening civil twilight19:2700:27

Current date and time
Zulu (UTC)  15-Oct-2018 22:37:02
Local (UTC-5)  15-Oct-2018 17:37:02
 
METAR
KAQO 
27nm S 
152215Z AUTO 35012KT 3SM +RA SCT001 OVC012 07/06 A3025 RMK AO2 P0002
KLZZ 
28nm E 
151855Z AUTO 01007G16KT 2 1/2SM -SN OVC010 05/04 A3020 RMK AO2 P0002 T00460037
KBBD 
31nm W 
152215Z AUTO 01013G21KT 1 1/4SM -RA OVC008 04/03 A3023 RMK AO2
KBWD 
36nm N 
152215Z AUTO 36012G15KT 10SM OVC028 06/03 A3026 RMK AO2 PWINO PNO
KMNZ 
39nm NE 
152215Z AUTO 34011G20KT 10SM OVC007 05/05 A3025 RMK AO2 T00530053
KBMQ 
39nm SE 
152212Z AUTO 35011G19KT 10SM -RA OVC009 06/04 A3020 RMK AO2 CIG 006V012 P0001 T00560044
KMKN 
41nm N 
152215Z 10SM BKN014 OVC023 05/05 A3026 RMK AO2 T00500050
KDZB 
46nm SE 
152215Z AUTO 34011G17KT 10SM RA BKN010 OVC015 07/06 A3021 RMK AO2 T00650058
KGRK 
47nm E 
152203Z AUTO 01014KT 3SM RA BR BKN008 OVC060 05/05 A3018 RMK AO2 VIS 3/4 RWY15 CIG 008V065 BKN V SCT SLP224
KGOP 
48nm E 
152215Z AUTO 32008G13KT 7SM SCT008 BKN013 BKN017 06/05 A3024 RMK AO2
TAF
KBBD 
31nm W 
151748Z 1518/1618 36018G26KT 5SM SHRA BR OVC008 TEMPO 1518/1520 2SM SHRA BR OVC006 FM160300 02014KT 2SM SHRA BR OVC006
NOTAMs
Click for the latest NOTAMs
NOTAMs are issued by the DoD/FAA and will open in a separate window not controlled by AirNav.

 

 
 

FBO, Fuel Providers, and Aircraft Ground Support

  
 Business Name 
 
 Contact 
 
 Services / Description 
 
Fuel Prices
 
Comments
  
San Saba County Municipal Airport 325-372-3380
no information available

If you are affiliated with San Saba County Municipal Airport and would like to show here your services, contact info, web link, logo, and more, click here
100LL
SS $4.00 
 Updated 06-Nov-2016
 
   write
SS=Self service
Update Fuel Prices
 

Would you like to see your business listed on this page?

 If your business provides an interesting product or service to pilots, flight crews, aircraft, or users of the San Saba County Municipal Airport, you should consider listing it here.  To start the listing process, click on the button below
 
Add a business
 

Other Pages about San Saba County Municipal Airport

Update a link
 
Copyright © AirNav, LLC. All rights reserved. Privacy Policy  Contact